Time;durP1;ratioP1;P1;durP2;ratioP2;P2;SDS_P1;SDS_P2;PMS_P1;PMS_P2;Temp;Humidity;BMP_temperature;BMP_pressure;BME280_temperature;BME280_humidity;BME280_pressure;Samples;Min_cycle;Max_cycle;Signal;HPM_P1;HPM_P2
2023/05/20 00:00:55;;;;;;;4.60;3.30;;;;;;;16.64;81.71;100903.69;5038850;28;20483;-78
2023/05/20 00:03:23;;;;;;;5.72;2.80;;;;;;;16.50;82.57;100912.03;5038682;28;20045;-76
2023/05/20 00:05:52;;;;;;;4.20;3.08;;;;;;;16.49;82.56;100914.00;5038660;28;20049;-79
2023/05/20 00:08:20;;;;;;;5.32;3.65;;;;;;;16.63;82.40;100907.59;5054976;28;20056;-76
2023/05/20 00:10:48;;;;;;;8.52;3.30;;;;;;;16.52;83.34;100912.53;5038522;28;20048;-76
2023/05/20 00:13:16;;;;;;;4.90;3.28;;;;;;;16.50;83.09;100900.97;5038192;28;20056;-77
2023/05/20 00:15:44;;;;;;;5.28;3.65;;;;;;;16.42;83.28;100901.72;5055012;28;20081;-76
2023/05/20 00:18:12;;;;;;;4.63;3.90;;;;;;;16.58;81.77;100899.41;5038282;28;20414;-77
2023/05/20 00:20:40;;;;;;;4.95;3.55;;;;;;;16.56;81.26;100904.44;5038139;28;20044;-76
2023/05/20 00:23:08;;;;;;;7.40;5.20;;;;;;;16.56;80.41;100904.44;5038643;28;20071;-76
2023/05/20 00:25:36;;;;;;;7.65;4.28;;;;;;;16.76;78.89;100905.88;5038622;28;20055;-77
2023/05/20 00:28:05;;;;;;;7.10;4.55;;;;;;;16.78;79.62;100896.13;5038655;28;20380;-76
2023/05/20 00:30:34;;;;;;;5.95;3.78;;;;;;;16.83;78.92;100886.94;5038188;28;20052;-76
2023/05/20 00:33:02;;;;;;;4.25;3.50;;;;;;;16.82;79.57;100888.06;5054561;28;20048;-76
2023/05/20 00:35:30;;;;;;;4.50;3.33;;;;;;;16.74;79.84;100886.88;5038165;28;20088;-77
2023/05/20 00:37:59;;;;;;;6.45;3.30;;;;;;;16.84;79.26;100888.56;5038040;28;20052;-76
2023/05/20 00:40:27;;;;;;;5.85;3.50;;;;;;;16.84;78.81;100879.44;5038054;28;20063;-78
2023/05/20 00:42:55;;;;;;;3.88;3.20;;;;;;;16.79;79.71;100872.09;5037764;28;20056;-77
2023/05/20 00:45:24;;;;;;;4.70;3.35;;;;;;;16.78;77.40;100876.00;5037351;28;20509;-78
2023/05/20 00:47:52;;;;;;;3.40;3.10;;;;;;;16.84;79.89;100871.97;5052607;28;20056;-76
2023/05/20 00:50:21;;;;;;;4.15;3.50;;;;;;;16.86;78.75;100866.94;5037930;28;20044;-77
2023/05/20 00:52:50;;;;;;;4.85;3.28;;;;;;;16.85;78.56;100868.06;5054319;28;20507;-78
2023/05/20 00:55:18;;;;;;;4.03;3.53;;;;;;;16.82;76.86;100881.72;5054418;28;20053;-78
2023/05/20 00:57:48;;;;;;;4.68;3.33;;;;;;;16.81;77.97;100880.09;5054213;28;20056;-78
2023/05/20 01:00:17;;;;;;;4.72;3.50;;;;;;;16.74;77.44;100872.22;5054124;28;20059;-77
2023/05/20 01:02:45;;;;;;;4.35;3.40;;;;;;;16.83;76.92;100877.81;5037584;28;20060;-78
2023/05/20 01:05:14;;;;;;;4.07;3.10;;;;;;;16.95;77.59;100883.56;5053494;28;20049;-78
2023/05/20 01:07:43;;;;;;;4.63;3.47;;;;;;;16.93;78.86;100870.06;5052038;28;20045;-78
2023/05/20 01:10:11;;;;;;;5.05;3.78;;;;;;;16.97;77.52;100869.44;5034268;28;20394;-78
2023/05/20 01:12:47;;;;;;;4.72;3.78;;;;;;;17.01;77.22;100875.97;5050922;28;20055;-78
2023/05/20 01:15:17;;;;;;;6.40;3.30;;;;;;;16.96;77.26;100854.00;5037510;28;20060;-78
2023/05/20 01:17:46;;;;;;;5.60;3.55;;;;;;;16.83;77.12;100862.06;5037318;28;20052;-77
2023/05/20 01:20:14;;;;;;;5.50;3.65;;;;;;;16.89;76.97;100860.78;5054353;28;20056;-78
2023/05/20 01:22:53;;;;;;;5.35;3.35;;;;;;;16.96;76.95;100854.00;5053979;28;20045;-78
2023/05/20 01:25:21;;;;;;;5.60;3.97;;;;;;;16.98;77.33;100848.94;5038135;28;20135;-78
2023/05/20 01:27:51;;;;;;;5.60;2.95;;;;;;;17.03;77.14;100843.31;5038103;28;20056;-78
2023/05/20 01:30:21;;;;;;;6.72;3.70;;;;;;;16.92;77.06;100840.00;5054161;28;20060;-77
2023/05/20 01:33:03;;;;;;;6.60;3.63;;;;;;;16.99;77.74;100832.06;5054199;28;20487;-79
2023/05/20 01:35:33;;;;;;;3.95;3.53;;;;;;;17.03;76.65;100841.38;5054176;28;20048;-78
2023/05/20 01:38:05;;;;;;;4.15;3.47;;;;;;;16.89;78.09;100844.19;5053692;28;20059;-77
2023/05/20 01:40:34;;;;;;;5.00;3.50;;;;;;;16.79;78.39;100837.00;5053965;28;20052;-78
2023/05/20 01:43:02;;;;;;;4.38;3.08;;;;;;;16.79;77.43;100844.47;5053642;28;20044;-77
2023/05/20 01:45:30;;;;;;;3.58;2.80;;;;;;;16.96;77.17;100842.94;5037533;28;20391;-77
2023/05/20 01:48:00;;;;;;;5.45;3.50;;;;;;;16.84;78.59;100829.69;5053694;28;20056;-77
2023/05/20 01:50:28;;;;;;;3.95;3.33;;;;;;;16.81;79.66;100831.13;5036930;28;20045;-78
2023/05/20 01:52:56;;;;;;;3.53;3.00;;;;;;;16.91;77.70;100830.88;5053717;28;20380;-78
2023/05/20 01:55:25;;;;;;;3.88;3.15;;;;;;;16.78;78.14;100817.97;5037053;28;20044;-78
2023/05/20 01:57:53;;;;;;;4.03;3.13;;;;;;;16.78;77.28;100815.19;5055074;28;20055;-78
2023/05/20 02:00:21;;;;;;;3.00;2.70;;;;;;;16.89;77.76;100818.50;5056606;28;20048;-78
2023/05/20 02:02:49;;;;;;;6.82;3.17;;;;;;;16.91;77.00;100806.00;5057238;28;20060;-78
2023/05/20 02:05:18;;;;;;;4.22;3.10;;;;;;;16.81;78.17;100803.50;5057108;28;20056;-78
2023/05/20 02:07:46;;;;;;;3.75;3.13;;;;;;;16.83;77.80;100812.31;5057368;28;20048;-78
2023/05/20 02:10:15;;;;;;;3.75;3.08;;;;;;;16.88;78.51;100801.13;5040620;28;20048;-78
2023/05/20 02:12:43;;;;;;;4.85;2.92;;;;;;;17.03;77.70;100794.38;5057096;28;20053;-78
2023/05/20 02:15:11;;;;;;;4.53;3.50;;;;;;;17.02;75.91;100805.72;5057198;28;20044;-78
2023/05/20 02:17:42;;;;;;;6.00;3.53;;;;;;;17.12;76.16;100802.72;5056990;28;20075;-78
2023/05/20 02:20:11;;;;;;;8.55;4.38;;;;;;;17.15;75.64;100795.69;5057113;28;20049;-78
2023/05/20 02:22:39;;;;;;;5.43;3.13;;;;;;;17.18;73.15;100795.06;5056728;28;20052;-78
2023/05/20 02:25:08;;;;;;;6.53;3.65;;;;;;;17.12;73.00;100791.66;5056919;28;20072;-78
2023/05/20 02:27:36;;;;;;;3.53;2.63;;;;;;;17.33;74.02;100797.41;5056882;28;20426;-78
2023/05/20 02:30:05;;;;;;;3.80;3.00;;;;;;;17.35;73.99;100796.28;5040218;28;20509;-78
2023/05/20 02:32:34;;;;;;;4.57;3.40;;;;;;;17.14;75.05;100794.91;5056819;28;20052;-78
2023/05/20 02:35:03;;;;;;;6.60;3.60;;;;;;;17.11;75.24;100792.75;5056917;28;20506;-78
2023/05/20 02:37:31;;;;;;;5.57;3.63;;;;;;;17.08;72.75;100793.41;5040590;28;20051;-78
2023/05/20 02:40:00;;;;;;;3.30;2.90;;;;;;;17.18;73.74;100789.56;5056755;28;20048;-78
2023/05/20 02:42:28;;;;;;;3.60;2.95;;;;;;;17.30;73.11;100788.94;5056748;28;20048;-78
2023/05/20 02:44:57;;;;;;;5.72;3.50;;;;;;;17.27;73.28;100797.88;5056406;28;20052;-77
2023/05/20 02:47:26;;;;;;;3.53;3.22;;;;;;;17.21;72.05;100790.88;5056492;28;20055;-78
2023/05/20 02:49:54;;;;;;;7.82;3.58;;;;;;;17.27;72.74;100790.41;5056412;28;20060;-79
2023/05/20 02:52:22;;;;;;;6.45;3.53;;;;;;;17.26;73.09;100788.75;5056667;28;20498;-77
2023/05/20 02:54:51;;;;;;;4.72;3.65;;;;;;;17.20;73.95;100776.22;5039977;28;20414;-79
2023/05/20 02:57:19;;;;;;;5.03;3.78;;;;;;;17.22;72.43;100773.97;5056510;28;20048;-78
2023/05/20 02:59:47;;;;;;;4.65;3.60;;;;;;;17.20;72.89;100767.91;5056176;28;20060;-79
2023/05/20 03:02:16;;;;;;;7.32;3.50;;;;;;;17.14;72.91;100761.72;5039805;28;20056;-77
2023/05/20 03:04:45;;;;;;;6.65;3.85;;;;;;;17.13;72.96;100771.16;5056357;28;20045;-77
2023/05/20 03:07:16;;;;;;;6.32;3.63;;;;;;;17.12;72.90;100750.19;5056388;28;20387;-77
2023/05/20 03:09:44;;;;;;;4.75;3.10;;;;;;;17.16;73.03;100759.44;5055756;28;20052;-77
2023/05/20 03:12:12;;;;;;;3.70;3.17;;;;;;;17.06;72.84;100766.09;5055962;28;20048;-77
2023/05/20 03:14:40;;;;;;;6.68;3.70;;;;;;;17.08;73.64;100754.72;5056122;28;20495;-77
2023/05/20 03:17:09;;;;;;;4.43;3.03;;;;;;;17.15;74.15;100755.06;5055546;28;20048;-78
2023/05/20 03:19:37;;;;;;;5.65;3.53;;;;;;;17.06;75.08;100760.56;5055844;28;20067;-77
2023/05/20 03:22:05;;;;;;;4.95;3.33;;;;;;;17.09;76.25;100753.56;5055947;28;20060;-77
2023/05/20 03:24:34;;;;;;;4.85;2.95;;;;;;;17.03;76.09;100763.16;5055620;28;20430;-77
2023/05/20 03:27:02;;;;;;;5.47;3.50;;;;;;;17.13;76.94;100760.09;5056003;28;20059;-77
2023/05/20 03:29:32;;;;;;;5.40;3.67;;;;;;;17.11;76.29;100767.88;5055695;28;20524;-77
2023/05/20 03:32:00;;;;;;;4.38;3.25;;;;;;;17.01;76.64;100751.56;5055681;28;20048;-77
2023/05/20 03:34:29;;;;;;;4.05;3.40;;;;;;;16.86;76.06;100753.63;5055767;28;20075;-77
2023/05/20 03:36:58;;;;;;;4.90;3.30;;;;;;;16.98;77.30;100753.03;5055644;28;20399;-77
2023/05/20 03:39:27;;;;;;;5.28;3.40;;;;;;;17.10;79.85;100755.19;5055493;28;20052;-77
2023/05/20 03:41:55;;;;;;;4.22;3.60;;;;;;;17.03;80.62;100750.16;5055533;28;20040;-77
2023/05/20 03:44:23;;;;;;;4.82;3.85;;;;;;;17.01;80.55;100749.59;5055540;28;20049;-77
2023/05/20 03:46:51;;;;;;;4.97;3.58;;;;;;;16.93;84.82;100755.94;5055521;28;20048;-77
2023/05/20 03:49:19;;;;;;;4.72;3.90;;;;;;;16.82;86.68;100749.06;5055223;28;20086;-77
2023/05/20 03:51:47;;;;;;;4.30;3.53;;;;;;;16.70;88.39;100757.91;5055077;28;20050;-77
2023/05/20 03:54:16;;;;;;;7.82;4.28;;;;;;;16.47;88.92;100758.78;5055195;28;20060;-77
2023/05/20 03:56:48;;;;;;;5.28;3.75;;;;;;;16.50;90.89;100762.84;5055366;28;20434;-77
2023/05/20 03:59:16;;;;;;;6.82;4.63;;;;;;;16.33;91.50;100749.78;5038171;28;20068;-77
2023/05/20 04:01:45;;;;;;;8.10;4.32;;;;;;;16.46;92.09;100756.31;5055299;28;20044;-77
2023/05/20 04:04:13;;;;;;;6.82;4.82;;;;;;;16.41;93.99;100757.28;5055073;28;20070;-77
2023/05/20 04:06:42;;;;;;;4.85;3.92;;;;;;;16.45;93.39;100744.47;5054956;28;20044;-77
2023/05/20 04:09:11;;;;;;;7.47;4.53;;;;;;;16.28;93.18;100742.41;5054905;28;20052;-77
2023/05/20 04:11:39;;;;;;;7.20;4.85;;;;;;;16.33;96.06;100750.56;5054986;28;20065;-77
2023/05/20 04:14:09;;;;;;;7.25;4.30;;;;;;;16.34;94.53;100756.91;5054953;28;20052;-77
2023/05/20 04:16:38;;;;;;;8.38;4.63;;;;;;;16.41;95.65;100750.97;5054804;28;20055;-77
2023/05/20 04:19:06;;;;;;;7.68;4.78;;;;;;;16.36;97.49;100744.44;5054837;28;20049;-77
2023/05/20 04:21:34;;;;;;;6.15;4.05;;;;;;;16.29;97.69;100738.53;5054031;28;20052;-77
2023/05/20 04:24:03;;;;;;;9.20;5.13;;;;;;;16.22;99.00;100732.63;5054718;28;20055;-78
2023/05/20 04:26:32;;;;;;;6.85;4.40;;;;;;;16.20;98.58;100734.91;5054101;28;20040;-78
2023/05/20 04:29:02;;;;;;;6.38;4.32;;;;;;;16.29;98.66;100743.25;5054754;28;20056;-78
2023/05/20 04:31:32;;;;;;;6.00;4.72;;;;;;;16.23;99.22;100745.31;5050871;28;20381;-77
2023/05/20 04:34:01;;;;;;;6.38;4.63;;;;;;;16.30;99.41;100747.63;5049244;28;20049;-77
2023/05/20 04:36:29;;;;;;;8.30;4.85;;;;;;;16.12;100.00;100750.25;5036098;28;20414;-77
2023/05/20 04:38:58;;;;;;;7.60;4.50;;;;;;;16.23;100.00;100745.31;5054015;28;20045;-77
2023/05/20 04:41:26;;;;;;;7.40;4.75;;;;;;;16.37;100.00;100748.00;5038086;28;20044;-78
2023/05/20 04:43:58;;;;;;;7.28;4.85;;;;;;;16.33;100.00;100742.28;5022294;28;20037;-75
2023/05/20 04:46:27;;;;;;;8.40;4.90;;;;;;;16.40;100.00;100736.31;5050149;28;20048;-76
2023/05/20 04:48:55;;;;;;;6.07;4.50;;;;;;;16.49;100.00;100741.91;5053708;28;20390;-76
2023/05/20 04:51:23;;;;;;;8.13;4.82;;;;;;;16.51;100.00;100728.56;5054365;28;20049;-76
2023/05/20 04:53:51;;;;;;;8.23;4.78;;;;;;;16.58;100.00;100726.19;5040379;28;20513;-75
2023/05/20 04:56:19;;;;;;;8.30;4.78;;;;;;;16.55;100.00;100721.28;5050655;28;20053;-75
2023/05/20 04:58:47;;;;;;;6.93;4.50;;;;;;;16.66;100.00;100716.31;5017829;28;20045;-75
2023/05/20 05:01:15;;;;;;;5.78;4.03;;;;;;;16.78;100.00;100722.03;5025174;28;20055;-77
2023/05/20 05:03:43;;;;;;;7.47;5.07;;;;;;;16.80;100.00;100716.19;5042931;28;20041;-75
2023/05/20 05:06:12;;;;;;;6.47;4.63;;;;;;;16.89;99.15;100707.94;5063834;28;20055;-77
2023/05/20 05:08:41;;;;;;;8.52;5.20;;;;;;;16.92;100.00;100713.63;5037770;28;20162;-76
2023/05/20 05:11:09;;;;;;;11.75;4.93;;;;;;;16.91;98.63;100703.72;5033040;28;20487;-77
2023/05/20 05:13:37;;;;;;;7.03;4.75;;;;;;;16.92;98.58;100710.88;5031207;28;20055;-77
2023/05/20 05:16:08;;;;;;;6.18;4.40;;;;;;;16.98;98.97;100711.56;5063709;28;20047;-77
2023/05/20 05:18:36;;;;;;;7.80;4.75;;;;;;;16.96;97.83;100704.72;5033602;28;20044;-77
2023/05/20 05:21:05;;;;;;;6.80;4.53;;;;;;;17.08;97.97;100699.41;5054194;28;20495;-77
2023/05/20 05:23:35;;;;;;;10.10;4.38;;;;;;;17.11;99.23;100696.00;5037823;28;20517;-78
2023/05/20 05:26:03;;;;;;;5.63;4.10;;;;;;;17.26;97.09;100696.69;5037818;28;20049;-78
2023/05/20 05:28:32;;;;;;;6.70;4.28;;;;;;;17.32;98.18;100685.13;5037694;28;20045;-78
2023/05/20 05:31:01;;;;;;;5.38;4.18;;;;;;;17.27;97.99;100685.31;5054183;28;20499;-78
2023/05/20 05:33:29;;;;;;;6.78;4.60;;;;;;;17.38;99.73;100683.03;5040956;28;20052;-78
2023/05/20 05:35:57;;;;;;;7.25;4.97;;;;;;;17.37;97.45;100678.66;5062032;28;20055;-78
2023/05/20 05:38:27;;;;;;;6.50;4.25;;;;;;;17.43;97.55;100674.59;5021388;28;20044;-78
2023/05/20 05:40:55;;;;;;;8.38;4.35;;;;;;;17.52;98.39;100671.81;5037846;28;20082;-78
2023/05/20 05:43:23;;;;;;;5.30;4.15;;;;;;;17.62;97.63;100673.44;5037872;28;20049;-80
2023/05/20 05:45:52;;;;;;;5.05;3.97;;;;;;;17.44;95.96;100670.69;5029165;28;20044;-78
2023/05/20 05:48:21;;;;;;;7.22;3.88;;;;;;;17.56;95.96;100667.25;5030855;28;20060;-78
2023/05/20 05:50:51;;;;;;;6.07;4.03;;;;;;;17.78;96.52;100672.97;5038740;28;20045;-77
2023/05/20 05:53:42;;;;;;;5.65;3.30;;;;;;;17.79;96.34;100666.28;5030042;28;20052;-77
2023/05/20 05:56:12;;;;;;;5.15;4.07;;;;;;;17.95;93.40;100678.44;5063926;28;20056;-77
2023/05/20 05:58:47;;;;;;;5.70;3.40;;;;;;;17.95;93.45;100675.69;5053351;28;20388;-78
2023/05/20 06:01:16;;;;;;;5.28;4.20;;;;;;;18.08;92.92;100681.41;5053515;28;20056;-78
2023/05/20 06:03:44;;;;;;;8.80;4.85;;;;;;;18.20;93.24;100684.31;5069931;28;20044;-78
2023/05/20 06:06:13;;;;;;;6.15;4.50;;;;;;;18.20;92.69;100675.19;5072269;28;20048;-78
2023/05/20 06:08:42;;;;;;;6.80;4.63;;;;;;;18.35;92.57;100684.91;5072618;28;20045;-78
2023/05/20 06:11:11;;;;;;;6.43;4.43;;;;;;;18.40;93.29;100681.97;5071607;28;20056;-78
2023/05/20 06:13:39;;;;;;;6.68;4.60;;;;;;;18.28;92.70;100679.88;5089175;28;20056;-78
2023/05/20 06:16:07;;;;;;;8.57;4.78;;;;;;;18.28;90.87;100685.41;5072269;28;20055;-78
2023/05/20 06:18:35;;;;;;;8.00;4.75;;;;;;;18.19;92.45;100681.88;5073940;28;20413;-78
2023/05/20 06:21:05;;;;;;;6.07;4.30;;;;;;;18.13;91.29;100679.28;5081501;28;20049;-78
2023/05/20 06:23:33;;;;;;;7.72;4.78;;;;;;;17.99;97.14;100673.91;5052502;28;20052;-78
2023/05/20 06:26:05;;;;;;;7.50;4.75;;;;;;;18.07;93.17;100679.78;5046856;28;20039;-86
2023/05/20 06:28:33;;;;;;;7.88;4.28;;;;;;;18.03;93.36;100684.31;5087418;28;20052;-87
2023/05/20 06:31:02;;;;;;;7.05;4.60;;;;;;;18.03;94.09;100681.56;5041230;28;20040;-87
2023/05/20 06:33:33;;;;;;;6.28;4.68;;;;;;;18.10;93.17;100685.47;5069136;28;20048;-88
2023/05/20 06:36:06;;;;;;;6.40;4.70;;;;;;;18.08;93.07;100686.97;5051350;28;20056;-89
2023/05/20 06:38:34;;;;;;;5.18;4.07;;;;;;;18.06;89.20;100697.53;5073339;28;20107;-89
2023/05/20 06:41:02;;;;;;;6.60;3.95;;;;;;;17.98;86.32;100688.88;5067493;28;20656;-88
2023/05/20 06:43:32;;;;;;;5.05;3.70;;;;;;;18.09;89.53;100686.59;5072555;28;20053;-89
2023/05/20 06:46:05;;;;;;;8.40;4.00;;;;;;;18.02;87.34;100691.00;5073116;28;20047;-89
2023/05/20 06:48:36;;;;;;;7.43;4.35;;;;;;;17.99;91.25;100687.75;5073179;28;20033;-90
2023/05/20 06:51:08;;;;;;;8.00;4.70;;;;;;;18.05;90.74;100688.41;5048392;28;20037;-89
2023/05/20 06:53:37;;;;;;;5.00;4.30;;;;;;;18.06;91.51;100694.75;5051947;28;20033;-90
2023/05/20 06:56:06;;;;;;;8.55;5.22;;;;;;;17.98;90.56;100688.88;5055505;28;20493;-90
2023/05/20 06:58:34;;;;;;;7.88;3.90;;;;;;;18.05;91.61;100702.25;5054626;28;20043;-89
2023/05/20 07:01:02;;;;;;;8.50;4.93;;;;;;;18.04;93.57;100697.03;5058955;28;20053;-91
2023/05/20 07:03:30;;;;;;;7.68;4.40;;;;;;;17.97;91.61;100695.56;5032658;28;20064;-89
2023/05/20 07:05:58;;;;;;;5.78;4.13;;;;;;;18.02;89.98;100699.31;5070786;28;20052;-92
2023/05/20 07:08:26;;;;;;;5.75;4.35;;;;;;;18.12;91.57;100693.44;5067127;28;20396;-89
2023/05/20 07:10:55;;;;;;;6.57;4.35;;;;;;;18.16;90.07;100705.50;5052629;28;20053;-90
2023/05/20 07:13:24;;;;;;;6.38;4.53;;;;;;;18.23;90.42;100708.56;5054732;28;20060;-90
2023/05/20 07:15:53;;;;;;;6.00;4.43;;;;;;;18.20;91.08;100703.72;5041852;28;20045;-88
2023/05/20 07:18:21;;;;;;;7.82;4.03;;;;;;;18.21;92.45;100698.97;5062244;28;20041;-88
2023/05/20 07:20:55;;;;;;;6.95;4.75;;;;;;;18.17;94.87;100701.59;5045146;28;20053;-89
2023/05/20 07:24:02;;;;;;;10.05;4.93;;;;;;;18.18;95.59;100697.66;5016665;28;20507;-89
2023/05/20 07:26:32;;;;;;;8.38;4.72;;;;;;;18.19;97.37;100693.75;5032505;28;20064;-88
2023/05/20 07:29:08;;;;;;;5.80;3.78;;;;;;;18.22;94.54;100687.56;5028311;28;20053;-90
2023/05/20 07:31:38;;;;;;;20.83;6.18;;;;;;;18.35;95.21;100690.47;5044495;28;20526;-86
2023/05/20 07:34:06;;;;;;;12.55;5.05;;;;;;;18.40;96.42;100676.44;5064079;28;20040;-87
2023/05/20 07:36:34;;;;;;;14.25;5.68;;;;;;;18.49;95.17;100682.78;5054297;28;20051;-85
2023/05/20 07:39:05;;;;;;;12.20;4.93;;;;;;;18.51;94.74;100683.25;5074236;28;20053;-87
2023/05/20 07:41:38;;;;;;;7.63;4.72;;;;;;;18.51;94.59;100674.09;5060915;28;20049;-86
2023/05/20 07:44:10;;;;;;;11.00;5.18;;;;;;;18.54;93.95;100682.56;5063485;28;20047;-85
2023/05/20 07:46:41;;;;;;;9.77;4.88;;;;;;;18.51;93.67;100682.41;5071468;28;20482;-85
2023/05/20 07:49:10;;;;;;;7.05;4.53;;;;;;;18.57;95.67;100688.59;5065427;28;21783;-88
2023/05/20 07:51:39;;;;;;;4.10;3.70;;;;;;;18.48;95.71;100675.59;5070179;28;20048;-88
2023/05/20 07:54:07;;;;;;;9.30;4.70;;;;;;;18.40;98.44;100676.44;5070197;28;20509;-88
2023/05/20 07:56:37;;;;;;;7.97;5.10;;;;;;;18.39;100.00;100686.69;5071430;28;20051;-89
2023/05/20 07:59:06;;;;;;;5.80;4.60;;;;;;;18.46;96.75;100680.66;5070568;28;20043;-89
2023/05/20 08:01:43;;;;;;;8.18;4.63;;;;;;;18.36;95.97;100681.81;5054706;28;20051;-88
2023/05/20 08:04:13;;;;;;;6.38;4.75;;;;;;;18.52;96.94;100678.50;5054417;28;20040;-89
2023/05/20 08:06:43;;;;;;;7.68;4.40;;;;;;;18.53;96.45;100680.94;5064972;28;20422;-89
2023/05/20 08:09:16;;;;;;;6.82;5.00;;;;;;;18.44;92.68;100680.19;5067104;28;20041;-90
2023/05/20 08:11:49;;;;;;;5.32;4.30;;;;;;;18.51;91.90;100682.41;5064857;28;20056;-89
2023/05/20 08:14:17;;;;;;;6.63;4.22;;;;;;;18.57;89.68;100683.06;5053811;28;20059;-87
2023/05/20 08:16:49;;;;;;;6.63;4.20;;;;;;;18.69;90.88;100688.72;5051881;28;20488;-89
2023/05/20 08:19:20;;;;;;;5.55;4.47;;;;;;;18.72;88.62;100696.34;5061906;28;20048;-88
2023/05/20 08:21:49;;;;;;;5.85;3.47;;;;;;;18.76;84.80;100708.41;5066012;28;20045;-89
2023/05/20 08:24:17;;;;;;;4.80;3.50;;;;;;;18.61;83.45;100704.22;5049856;28;20037;-90
2023/05/20 08:26:45;;;;;;;5.55;4.15;;;;;;;18.55;82.36;100705.56;5071059;28;20494;-90
2023/05/20 08:29:14;;;;;;;5.55;3.95;;;;;;;18.77;83.52;100712.00;5052915;28;20055;-92
2023/05/20 08:31:42;;;;;;;4.57;4.00;;;;;;;18.71;83.32;100716.09;5061277;28;20051;-91
2023/05/20 08:34:15;;;;;;;5.72;4.13;;;;;;;18.51;81.65;100722.03;5081930;28;20040;-89
2023/05/20 08:36:44;;;;;;;5.00;4.20;;;;;;;18.38;84.12;100720.28;5042470;28;20053;-88
2023/05/20 08:39:13;;;;;;;4.45;3.58;;;;;;;18.51;83.93;100743.38;5050675;28;20053;-90
2023/05/20 08:41:41;;;;;;;6.03;4.30;;;;;;;18.36;85.37;100739.19;5034149;28;20949;-88
2023/05/20 08:44:12;;;;;;;5.03;3.85;;;;;;;18.26;87.76;100734.81;5070051;28;20044;-88
2023/05/20 08:46:42;;;;;;;5.90;4.55;;;;;;;18.32;87.95;100729.91;5053853;28;20055;-87
2023/05/20 08:49:11;;;;;;;8.35;4.75;;;;;;;18.25;87.16;100735.94;5068915;28;20041;-90
2023/05/20 08:51:39;;;;;;;5.55;4.32;;;;;;;18.30;87.53;100737.72;5061437;28;20400;-91
2023/05/20 08:54:08;;;;;;;6.90;4.55;;;;;;;18.16;89.33;100735.13;5050868;28;20065;-91
2023/05/20 08:56:37;;;;;;;6.25;4.18;;;;;;;18.15;90.92;100731.56;5083072;28;20044;-92
2023/05/20 08:59:05;;;;;;;5.65;4.40;;;;;;;18.21;89.21;100735.81;5052918;28;20410;-90
2023/05/20 09:01:41;;;;;;;5.53;4.45;;;;;;;18.31;89.80;100740.19;5060556;28;20134;-90
2023/05/20 09:04:10;;;;;;;7.03;4.93;;;;;;;18.30;90.20;100721.09;5086424;28;20055;-88
2023/05/20 09:06:44;;;;;;;6.35;4.88;;;;;;;18.32;91.13;100739.03;5048562;28;20045;-86
2023/05/20 09:09:13;;;;;;;8.18;5.28;;;;;;;18.31;91.04;100740.19;5064246;28;20052;-87
2023/05/20 09:11:42;;;;;;;8.90;5.20;;;;;;;18.16;90.81;100735.97;5071040;28;20059;-88
2023/05/20 09:14:10;;;;;;;6.57;5.07;;;;;;;18.22;89.90;100733.81;5069404;28;20049;-89
2023/05/20 09:16:40;;;;;;;6.63;5.05;;;;;;;18.46;89.29;100747.16;5038424;28;20395;-85
2023/05/20 09:19:09;;;;;;;7.18;5.10;;;;;;;18.59;89.78;100745.34;5065340;28;20372;-86
2023/05/20 09:21:40;;;;;;;7.68;5.65;;;;;;;18.71;89.61;100746.59;5067290;28;20511;-85
2023/05/20 09:24:08;;;;;;;7.05;5.68;;;;;;;18.88;89.59;100746.53;5070945;28;20376;-86
2023/05/20 09:26:36;;;;;;;5.90;4.97;;;;;;;18.92;88.95;100752.22;5066931;28;20045;-86
2023/05/20 09:29:05;;;;;;;10.43;6.45;;;;;;;18.89;88.82;100752.88;5068942;28;20126;-85
2023/05/20 09:31:34;;;;;;;11.00;6.90;;;;;;;18.90;89.25;100751.72;5060353;28;20052;-85
2023/05/20 09:34:02;;;;;;;12.90;7.70;;;;;;;18.80;90.23;100750.97;5070706;28;20052;-84
2023/05/20 09:36:33;;;;;;;13.00;7.88;;;;;;;19.00;88.68;100748.59;5066075;28;20040;-85
2023/05/20 09:39:04;;;;;;;13.35;7.43;;;;;;;19.24;88.09;100740.81;5063581;28;20040;-84
2023/05/20 09:41:38;;;;;;;11.60;6.50;;;;;;;19.23;87.70;100750.28;5067420;28;20400;-86
2023/05/20 09:44:07;;;;;;;11.50;6.25;;;;;;;19.33;87.21;100747.13;5066660;28;20388;-87
2023/05/20 09:46:35;;;;;;;9.80;6.07;;;;;;;19.36;87.82;100746.47;5070355;28;20044;-86
2023/05/20 09:49:06;;;;;;;11.50;6.10;;;;;;;19.34;87.28;100735.72;5070754;28;20048;-87
2023/05/20 09:51:36;;;;;;;7.60;4.60;;;;;;;19.39;87.25;100742.19;5062568;28;20048;-86
2023/05/20 09:54:07;;;;;;;8.45;5.30;;;;;;;19.34;86.77;100735.72;5057849;28;20049;-87
2023/05/20 09:56:36;;;;;;;12.20;5.55;;;;;;;19.52;88.59;100743.09;5061327;28;20530;-87
2023/05/20 09:59:05;;;;;;;8.05;5.53;;;;;;;19.51;87.69;100738.69;5043396;28;20052;-86
2023/05/20 10:01:33;;;;;;;7.90;5.55;;;;;;;19.29;87.96;100735.91;5056293;28;20056;-86
2023/05/20 10:04:05;;;;;;;7.88;6.15;;;;;;;19.14;88.02;100737.28;5049210;28;20060;-86
2023/05/20 10:06:44;;;;;;;8.35;5.53;;;;;;;19.45;87.79;100733.34;5050356;28;20037;-86
2023/05/20 10:09:31;;;;;;;9.93;6.30;;;;;;;19.42;87.37;100733.22;5065949;28;20052;-86
2023/05/20 10:12:03;;;;;;;10.70;6.28;;;;;;;19.68;87.21;100718.31;5066744;28;20040;-85
2023/05/20 10:14:42;;;;;;;10.07;6.63;;;;;;;19.81;86.46;100725.56;5067491;28;20041;-86
2023/05/20 10:17:38;;;;;;;8.50;6.20;;;;;;;19.63;87.20;100710.19;5070401;28;20037;-87
2023/05/20 10:20:10;;;;;;;7.97;6.13;;;;;;;19.69;84.03;100717.97;5072680;28;20060;-86
2023/05/20 10:22:39;;;;;;;10.38;7.15;;;;;;;19.77;85.87;100713.53;5073079;28;20048;-87
2023/05/20 10:25:11;;;;;;;9.85;6.47;;;;;;;19.75;84.36;100704.72;5073462;28;20048;-86
2023/05/20 10:27:46;;;;;;;12.15;6.30;;;;;;;19.85;81.90;100707.06;5071831;28;20047;-86
2023/05/20 10:30:20;;;;;;;10.48;5.63;;;;;;;19.88;84.20;100708.34;5090145;28;20056;-86
2023/05/20 10:32:53;;;;;;;7.23;5.30;;;;;;;19.45;81.89;100707.53;5074480;28;20399;-86
2023/05/20 10:35:26;;;;;;;7.43;5.93;;;;;;;19.49;81.11;100702.94;5072334;28;20653;-85
2023/05/20 10:38:09;;;;;;;7.88;6.07;;;;;;;19.66;79.65;100704.78;5074270;28;20045;-84
2023/05/20 10:40:38;;;;;;;8.30;5.93;;;;;;;19.65;78.96;100699.56;5073173;28;20051;-83
2023/05/20 10:43:14;;;;;;;9.25;5.63;;;;;;;19.81;78.98;100686.69;5074497;28;20376;-84
2023/05/20 10:45:57;;;;;;;9.57;6.97;;;;;;;19.71;80.44;100693.47;5074269;28;20056;-84
2023/05/20 10:48:32;;;;;;;9.85;6.20;;;;;;;19.73;78.89;100693.13;5074208;28;20080;-84
2023/05/20 10:51:05;;;;;;;11.00;6.38;;;;;;;19.91;81.10;100690.19;5066106;28;20487;-84
2023/05/20 10:53:41;;;;;;;10.05;6.95;;;;;;;19.86;80.53;100682.91;5068819;28;20518;-83
2023/05/20 10:56:24;;;;;;;8.30;6.30;;;;;;;19.92;80.38;100678.75;5073704;28;20048;-84
2023/05/20 10:58:55;;;;;;;11.75;6.53;;;;;;;19.80;77.91;100665.63;5062685;28;20040;-86
2023/05/20 11:01:25;;;;;;;8.90;6.78;;;;;;;20.00;79.29;100671.53;5072471;28;20045;-83
2023/05/20 11:03:55;;;;;;;8.85;7.03;;;;;;;20.14;80.98;100654.56;5072560;28;20491;-86
2023/05/20 11:06:27;;;;;;;9.93;6.63;;;;;;;20.03;78.70;100659.72;5072665;28;20039;-82
2023/05/20 11:09:05;;;;;;;10.80;7.00;;;;;;;20.08;77.47;100659.50;5073628;28;20060;-83
2023/05/20 11:11:37;;;;;;;14.10;7.60;;;;;;;19.91;79.94;100654.09;5071836;28;20044;-84
2023/05/20 11:14:06;;;;;;;10.75;7.28;;;;;;;20.02;78.49;100660.88;5073466;28;20051;-84
2023/05/20 11:16:34;;;;;;;10.02;7.25;;;;;;;19.85;78.09;100657.09;5071208;28;20056;-85
2023/05/20 11:19:02;;;;;;;13.52;7.38;;;;;;;19.96;76.54;100673.34;5073375;28;20388;-82
2023/05/20 11:21:30;;;;;;;11.88;7.93;;;;;;;19.87;75.79;100665.06;5087957;28;20403;-82
2023/05/20 11:23:58;;;;;;;9.43;6.90;;;;;;;19.76;76.61;100650.81;5068931;28;20056;-80
2023/05/20 11:26:28;;;;;;;11.13;7.18;;;;;;;19.81;76.30;100658.94;5067356;28;20408;-82
2023/05/20 11:28:56;;;;;;;10.38;6.90;;;;;;;19.71;76.24;100656.56;5068860;28;20123;-80
2023/05/20 11:31:27;;;;;;;9.57;6.80;;;;;;;19.62;75.63;100651.09;5066878;28;20056;-81
2023/05/20 11:33:55;;;;;;;10.55;6.47;;;;;;;19.58;76.46;100656.53;5072172;28;20052;-82
2023/05/20 11:36:23;;;;;;;12.32;7.75;;;;;;;19.62;74.93;100645.56;5069446;28;20057;-81